createdAt,value
2023-02-13T00:01:04.412Z,100.00
2023-02-13T00:03:31.362Z,100.00
2023-02-13T00:05:58.147Z,100.00
2023-02-13T00:08:24.810Z,100.00
2023-02-13T00:10:51.491Z,100.00
2023-02-13T00:13:18.199Z,100.00
2023-02-13T00:15:44.908Z,100.00
2023-02-13T00:18:11.573Z,100.00
2023-02-13T00:20:38.200Z,100.00
2023-02-13T00:23:04.805Z,100.00
2023-02-13T00:25:31.593Z,100.00
2023-02-13T00:28:01.196Z,100.00
2023-02-13T00:30:27.828Z,100.00
2023-02-13T00:32:54.436Z,100.00
2023-02-13T00:35:21.055Z,100.00
2023-02-13T00:37:47.751Z,100.00
2023-02-13T00:40:14.413Z,100.00
2023-02-13T00:42:41.015Z,100.00
2023-02-13T00:45:08.382Z,100.00
2023-02-13T00:47:34.982Z,100.00
2023-02-13T00:50:01.691Z,100.00
2023-02-13T00:52:28.334Z,100.00
2023-02-13T00:54:55.160Z,100.00
2023-02-13T00:57:21.936Z,100.00
2023-02-13T00:59:50.059Z,100.00
2023-02-13T01:02:17.433Z,100.00
2023-02-13T01:04:44.047Z,100.00
2023-02-13T01:07:10.654Z,100.00
2023-02-13T01:09:37.376Z,100.00
2023-02-13T01:12:04.049Z,100.00
2023-02-13T01:14:30.825Z,100.00
2023-02-13T01:16:58.625Z,100.00
2023-02-13T01:19:25.485Z,100.00
2023-02-13T01:21:54.451Z,100.00
2023-02-13T01:24:21.054Z,100.00
2023-02-13T01:26:47.675Z,100.00
2023-02-13T01:29:14.701Z,100.00
2023-02-13T01:31:41.428Z,100.00
2023-02-13T01:34:08.346Z,100.00
2023-02-13T01:36:35.058Z,100.00
2023-02-13T01:39:04.706Z,100.00
2023-02-13T01:41:31.434Z,100.00
2023-02-13T01:44:01.874Z,100.00
2023-02-13T01:46:33.716Z,100.00
2023-02-13T01:49:11.476Z,100.00
2023-02-13T01:51:38.629Z,100.00
2023-02-13T01:54:11.768Z,100.00
2023-02-13T01:56:49.082Z,100.00
2023-02-13T01:59:20.045Z,100.00
2023-02-13T02:01:47.660Z,100.00
2023-02-13T02:04:18.329Z,100.00
2023-02-13T02:06:51.846Z,100.00
2023-02-13T02:09:21.370Z,100.00
2023-02-13T02:12:25.468Z,100.00
2023-02-13T02:14:53.920Z,100.00
2023-02-13T02:17:22.737Z,100.00
2023-02-13T02:20:02.395Z,100.00
2023-02-13T02:23:08.405Z,100.00
2023-02-13T02:26:08.482Z,100.00
2023-02-13T02:29:01.651Z,100.00
2023-02-13T02:31:52.074Z,100.00
2023-02-13T02:34:54.475Z,100.00
2023-02-13T02:37:43.940Z,100.00
2023-02-13T02:40:33.214Z,100.00
2023-02-13T02:43:13.097Z,100.00
2023-02-13T02:45:44.543Z,100.00
2023-02-13T02:48:40.682Z,100.00
2023-02-13T02:51:21.861Z,100.00
2023-02-13T02:54:36.103Z,100.00
2023-02-13T02:57:18.090Z,100.00
2023-02-13T03:00:05.411Z,100.00
2023-02-13T03:02:51.177Z,100.00
2023-02-13T03:05:40.553Z,100.00
2023-02-13T03:08:07.263Z,100.00
2023-02-13T03:10:54.072Z,100.00
2023-02-13T03:13:42.826Z,100.00
2023-02-13T03:16:34.565Z,100.00
2023-02-13T03:19:19.971Z,100.00
2023-02-13T03:22:13.496Z,100.00
2023-02-13T03:25:09.021Z,100.00
2023-02-13T03:28:04.879Z,100.00
2023-02-13T03:30:52.941Z,100.00
2023-02-13T03:33:43.688Z,100.00
2023-02-13T03:36:41.156Z,100.00
2023-02-13T03:39:35.390Z,100.00
2023-02-13T03:42:05.713Z,100.00
2023-02-13T03:44:46.781Z,100.00
2023-02-13T03:47:14.939Z,100.00
2023-02-13T03:50:03.831Z,100.00
2023-02-13T03:52:45.362Z,100.00
2023-02-13T03:55:42.896Z,100.00
2023-02-13T03:58:32.215Z,100.00
2023-02-13T04:01:01.269Z,100.00
2023-02-13T04:03:43.163Z,100.00
2023-02-13T04:06:15.322Z,100.00
2023-02-13T04:08:42.179Z,100.00
2023-02-13T04:11:18.702Z,100.00
2023-02-13T04:13:58.363Z,100.00
2023-02-13T04:16:32.602Z,100.00
2023-02-13T04:18:59.144Z,100.00
2023-02-13T04:21:25.729Z,100.00
2023-02-13T04:23:52.346Z,100.00
2023-02-13T04:26:21.503Z,100.00
2023-02-13T04:28:48.207Z,100.00
2023-02-13T04:31:15.283Z,100.00
2023-02-13T04:33:42.022Z,100.00
2023-02-13T04:36:08.888Z,100.00
2023-02-13T04:38:35.493Z,100.00
2023-02-13T04:41:02.134Z,100.00
2023-02-13T04:43:28.777Z,100.00
2023-02-13T04:45:55.759Z,100.00
2023-02-13T04:48:22.403Z,100.00
2023-02-13T04:50:49.063Z,100.00
2023-02-13T04:53:15.679Z,100.00
2023-02-13T04:55:42.310Z,100.00
2023-02-13T04:58:08.933Z,100.00
2023-02-13T05:00:35.723Z,100.00
2023-02-13T05:03:06.998Z,100.00
2023-02-13T05:05:34.568Z,100.00
2023-02-13T05:08:01.316Z,100.00
2023-02-13T05:10:28.268Z,100.00
2023-02-13T05:12:54.922Z,100.00
2023-02-13T05:15:23.523Z,100.00
2023-02-13T05:17:50.402Z,100.00
2023-02-13T05:20:17.180Z,100.00
2023-02-13T05:23:06.496Z,100.00
2023-02-13T05:25:33.872Z,100.00
2023-02-13T05:28:00.531Z,100.00
2023-02-13T05:30:27.579Z,100.00
2023-02-13T05:32:55.116Z,100.00
2023-02-13T05:35:22.493Z,100.00
2023-02-13T05:37:49.187Z,100.00
2023-02-13T05:40:16.047Z,100.00
2023-02-13T05:42:42.706Z,100.00
2023-02-13T05:45:10.211Z,100.00
2023-02-13T05:47:36.837Z,100.00
2023-02-13T05:50:03.677Z,100.00
2023-02-13T05:52:30.281Z,100.00
2023-02-13T05:54:56.892Z,100.00
2023-02-13T05:57:23.550Z,100.00
2023-02-13T05:59:50.181Z,100.00
2023-02-13T06:02:16.815Z,100.00
2023-02-13T06:04:43.526Z,100.00
2023-02-13T06:07:10.158Z,100.00
2023-02-13T06:09:36.768Z,100.00
2023-02-13T06:12:03.419Z,100.00
2023-02-13T06:14:30.048Z,100.00
2023-02-13T06:16:56.675Z,100.00
2023-02-13T06:19:23.532Z,100.00
2023-02-13T06:21:50.156Z,100.00
2023-02-13T06:24:16.766Z,100.00
2023-02-13T06:26:43.410Z,100.00
2023-02-13T06:29:11.207Z,100.00
2023-02-13T06:31:37.965Z,100.00
2023-02-13T06:34:04.665Z,100.00
2023-02-13T06:36:31.293Z,100.00
2023-02-13T06:38:57.867Z,100.00
2023-02-13T06:41:24.480Z,100.00
2023-02-13T06:43:51.081Z,100.00
2023-02-13T06:46:17.845Z,100.00
2023-02-13T06:48:44.503Z,100.00
2023-02-13T06:51:11.106Z,100.00
2023-02-13T06:53:39.697Z,100.00
2023-02-13T06:56:07.085Z,100.00
2023-02-13T06:58:34.431Z,100.00
2023-02-13T07:01:01.207Z,100.00
2023-02-13T07:03:27.936Z,100.00
2023-02-13T07:05:54.694Z,100.00
2023-02-13T07:08:21.389Z,100.00
2023-02-13T07:10:48.132Z,100.00
2023-02-13T07:13:14.884Z,100.00
2023-02-13T07:15:42.097Z,100.00
2023-02-13T07:18:09.121Z,100.00
2023-02-13T07:20:36.044Z,100.00
2023-02-13T07:23:04.861Z,100.00
2023-02-13T07:25:31.969Z,100.00
2023-02-13T07:28:03.723Z,100.00
2023-02-13T07:30:31.790Z,100.00
2023-02-13T07:33:03.170Z,100.00
2023-02-13T07:35:30.018Z,100.00
2023-02-13T07:37:56.787Z,100.00
2023-02-13T07:40:23.539Z,100.00
2023-02-13T07:42:50.236Z,100.00
2023-02-13T07:45:17.066Z,100.00
2023-02-13T07:47:43.716Z,100.00
2023-02-13T07:50:10.788Z,100.00
2023-02-13T07:52:38.030Z,100.00
2023-02-13T07:55:05.536Z,100.00
2023-02-13T07:57:32.340Z,100.00
2023-02-13T07:59:58.966Z,100.00
2023-02-13T08:02:25.596Z,100.00
2023-02-13T08:04:52.246Z,100.00
2023-02-13T08:07:19.871Z,100.00
2023-02-13T08:10:05.783Z,100.00
2023-02-13T08:12:34.169Z,100.00
2023-02-13T08:15:00.774Z,100.00
2023-02-13T08:17:27.400Z,100.00
2023-02-13T08:19:55.038Z,100.00
2023-02-13T08:22:21.667Z,100.00
2023-02-13T08:24:48.261Z,100.00
2023-02-13T08:27:15.723Z,100.00
2023-02-13T08:29:42.363Z,100.00
2023-02-13T08:32:09.488Z,100.00
2023-02-13T08:34:36.252Z,100.00
2023-02-13T08:37:03.653Z,100.00
2023-02-13T08:39:30.282Z,100.00
2023-02-13T08:41:56.975Z,100.00
2023-02-13T08:44:23.566Z,100.00
2023-02-13T08:46:50.208Z,100.00
2023-02-13T08:49:17.063Z,100.00
2023-02-13T08:51:43.784Z,100.00
2023-02-13T08:54:10.428Z,100.00
2023-02-13T08:56:37.135Z,100.00
2023-02-13T08:59:03.846Z,100.00
2023-02-13T09:01:30.491Z,100.00
2023-02-13T09:03:57.139Z,100.00
2023-02-13T09:06:26.247Z,100.00
2023-02-13T09:08:53.382Z,100.00
2023-02-13T09:11:23.283Z,100.00
2023-02-13T09:13:52.954Z,100.00
2023-02-13T09:16:19.928Z,100.00
2023-02-13T09:18:53.077Z,100.00
2023-02-13T09:21:22.784Z,100.00
2023-02-13T09:23:50.311Z,100.00
2023-02-13T09:26:19.626Z,100.00
2023-02-13T09:28:47.121Z,100.00
2023-02-13T09:31:16.692Z,100.00
2023-02-13T09:33:44.605Z,100.00
2023-02-13T09:36:14.770Z,100.00
2023-02-13T09:38:44.809Z,100.00
2023-02-13T09:41:18.598Z,100.00
2023-02-13T09:43:49.893Z,100.00
2023-02-13T09:46:38.792Z,100.00
2023-02-13T09:49:08.876Z,100.00
2023-02-13T09:51:35.855Z,100.00
2023-02-13T09:54:05.028Z,100.00
2023-02-13T09:56:37.860Z,100.00
2023-02-13T09:59:35.397Z,100.00
2023-02-13T10:02:14.624Z,100.00
2023-02-13T10:04:48.753Z,100.00
2023-02-13T10:07:31.713Z,100.00
2023-02-13T10:10:03.143Z,100.00
2023-02-13T10:13:03.824Z,100.00
2023-02-13T10:15:45.067Z,100.00
2023-02-13T10:18:16.410Z,100.00
2023-02-13T10:20:52.861Z,100.00
2023-02-13T10:23:33.423Z,100.00
2023-02-13T10:26:07.350Z,100.00
2023-02-13T10:29:25.492Z,100.00
2023-02-13T10:31:55.882Z,100.00
2023-02-13T10:34:25.767Z,100.00
2023-02-13T10:36:52.592Z,100.00
2023-02-13T10:39:25.504Z,100.00
2023-02-13T10:42:05.125Z,100.00
2023-02-13T10:44:54.712Z,100.00
2023-02-13T10:47:41.471Z,100.00
2023-02-13T10:50:23.642Z,100.00
2023-02-13T10:52:54.902Z,100.00
2023-02-13T10:55:31.459Z,100.00
2023-02-13T10:58:20.468Z,100.00
2023-02-13T11:00:56.805Z,100.00
2023-02-13T11:03:25.937Z,100.00
2023-02-13T11:05:53.867Z,100.00
2023-02-13T11:08:35.721Z,100.00
2023-02-13T11:11:02.359Z,100.00
2023-02-13T11:13:30.546Z,100.00
2023-02-13T11:16:00.968Z,100.00
2023-02-13T11:18:30.131Z,100.00
2023-02-13T11:21:04.162Z,100.00
2023-02-13T11:23:30.690Z,100.00
2023-02-13T11:26:03.488Z,100.00
2023-02-13T11:28:32.687Z,100.00
2023-02-13T11:31:13.669Z,100.00
2023-02-13T11:33:40.648Z,100.00
2023-02-13T11:36:09.791Z,100.00
2023-02-13T11:38:36.686Z,100.00
2023-02-13T11:41:13.727Z,100.00
2023-02-13T11:44:06.743Z,100.00
2023-02-13T11:46:53.319Z,100.00
2023-02-13T11:49:22.416Z,100.00
2023-02-13T11:51:51.100Z,100.00
2023-02-13T11:54:24.681Z,100.00
2023-02-13T11:57:07.337Z,100.00
2023-02-13T11:59:41.325Z,100.00
2023-02-13T12:02:18.920Z,100.00
2023-02-13T12:04:46.860Z,100.00
2023-02-13T12:07:18.769Z,100.00
2023-02-13T12:09:48.996Z,100.00
2023-02-13T12:12:26.082Z,100.00
2023-02-13T12:14:53.026Z,100.00
2023-02-13T12:17:31.349Z,100.00
2023-02-13T12:19:58.782Z,100.00
2023-02-13T12:22:36.942Z,100.00
2023-02-13T12:25:36.557Z,100.00
2023-02-13T12:28:13.391Z,100.00
2023-02-13T12:30:46.188Z,100.00
2023-02-13T12:33:31.578Z,100.00
2023-02-13T12:36:17.318Z,100.00
2023-02-13T12:38:47.195Z,100.00
2023-02-13T12:41:20.523Z,100.00
2023-02-13T12:44:09.026Z,100.00
2023-02-13T12:46:58.756Z,100.00
2023-02-13T12:49:31.406Z,100.00
2023-02-13T12:52:11.441Z,100.00
2023-02-13T12:54:48.393Z,100.00
2023-02-13T12:57:21.604Z,100.00
2023-02-13T13:00:13.287Z,100.00
2023-02-13T13:03:17.721Z,100.00
2023-02-13T13:06:19.745Z,100.00
2023-02-13T13:08:49.365Z,100.00
2023-02-13T13:11:34.526Z,100.00
2023-02-13T13:14:03.961Z,100.00
2023-02-13T13:16:45.529Z,100.00
2023-02-13T13:19:38.173Z,100.00
2023-02-13T13:22:19.561Z,100.00
2023-02-13T13:24:58.117Z,100.00
2023-02-13T13:27:32.118Z,100.00
2023-02-13T13:30:13.709Z,100.00
2023-02-13T13:32:41.812Z,100.00
2023-02-13T13:35:20.285Z,100.00
2023-02-13T13:38:06.638Z,100.00
2023-02-13T13:40:53.335Z,100.00
2023-02-13T13:43:33.793Z,100.00
2023-02-13T13:46:32.733Z,100.00
2023-02-13T13:48:59.490Z,100.00
2023-02-13T13:51:26.434Z,100.00
2023-02-13T13:54:05.288Z,100.00
2023-02-13T13:56:53.727Z,100.00
2023-02-13T13:59:51.774Z,100.00
2023-02-13T14:02:18.679Z,100.00
2023-02-13T14:05:16.132Z,100.00
2023-02-13T14:07:43.320Z,100.00
2023-02-13T14:10:18.781Z,100.00
2023-02-13T14:12:50.357Z,100.00
2023-02-13T14:15:44.899Z,100.00
2023-02-13T14:18:14.456Z,100.00
2023-02-13T14:20:51.620Z,100.00
2023-02-13T14:23:37.331Z,100.00
2023-02-13T14:26:11.255Z,100.00
2023-02-13T14:28:38.286Z,100.00
2023-02-13T14:31:22.526Z,100.00
2023-02-13T14:34:04.461Z,100.00
2023-02-13T14:36:52.710Z,100.00
2023-02-13T14:39:28.199Z,100.00
2023-02-13T14:41:54.728Z,100.00
2023-02-13T14:44:32.042Z,100.00
2023-02-13T14:47:00.532Z,100.00
2023-02-13T14:49:29.953Z,100.00
2023-02-13T14:52:02.743Z,100.00
2023-02-13T14:54:36.492Z,100.00
2023-02-13T14:57:17.485Z,100.00
2023-02-13T14:59:47.769Z,100.00
2023-02-13T15:02:30.362Z,100.00
2023-02-13T15:05:00.191Z,100.00
2023-02-13T15:07:29.796Z,100.00
2023-02-13T15:10:01.154Z,100.00
2023-02-13T15:12:29.300Z,99.60
2023-02-13T15:14:56.003Z,100.00
2023-02-13T15:17:25.646Z,100.00
2023-02-13T15:19:55.560Z,97.45
2023-02-13T15:22:30.750Z,99.25
2023-02-13T15:24:58.498Z,98.50
2023-02-13T15:27:31.063Z,97.28
2023-02-13T15:30:04.641Z,96.18
2023-02-13T15:32:36.987Z,96.73
2023-02-13T15:35:33.833Z,96.91
2023-02-13T15:38:28.916Z,94.89
2023-02-13T15:40:59.776Z,96.00
2023-02-13T15:43:35.430Z,97.29
2023-02-13T15:46:06.790Z,99.05
2023-02-13T15:48:34.882Z,96.45
2023-02-13T15:51:02.587Z,98.06
2023-02-13T15:53:30.067Z,98.20
2023-02-13T15:56:03.267Z,98.40
2023-02-13T15:58:33.151Z,98.33
2023-02-13T16:01:04.821Z,99.00
2023-02-13T16:03:33.491Z,96.54
2023-02-13T16:06:00.442Z,100.00
2023-02-13T16:08:35.977Z,100.00
2023-02-13T16:11:11.109Z,100.00
2023-02-13T16:13:37.780Z,97.81
2023-02-13T16:16:09.122Z,98.68
2023-02-13T16:18:36.030Z,98.26
2023-02-13T16:21:03.811Z,100.00
2023-02-13T16:23:30.968Z,99.83
2023-02-13T16:26:04.310Z,100.00
2023-02-13T16:28:32.865Z,99.15
2023-02-13T16:31:02.053Z,99.83
2023-02-13T16:33:33.449Z,99.84
2023-02-13T16:36:17.609Z,100.00
2023-02-13T16:38:45.263Z,100.00
2023-02-13T16:41:17.877Z,100.00
2023-02-13T16:43:45.500Z,100.00
2023-02-13T16:46:15.047Z,96.34
2023-02-13T16:48:42.879Z,98.49
2023-02-13T16:51:09.731Z,100.00
2023-02-13T16:53:36.868Z,100.00
2023-02-13T16:56:06.953Z,100.00
2023-02-13T16:58:33.718Z,100.00
2023-02-13T17:01:03.858Z,100.00
2023-02-13T17:03:31.938Z,99.59
2023-02-13T17:06:02.389Z,100.00
2023-02-13T17:08:30.859Z,96.42
2023-02-13T17:11:06.654Z,97.33
2023-02-13T17:13:33.784Z,96.72
2023-02-13T17:16:00.445Z,95.74
2023-02-13T17:18:27.614Z,96.73
2023-02-13T17:20:54.670Z,97.72
2023-02-13T17:23:23.993Z,97.52
2023-02-13T17:25:52.576Z,99.15
2023-02-13T17:28:21.795Z,100.00
2023-02-13T17:30:50.450Z,98.84
2023-02-13T17:33:21.219Z,96.58
2023-02-13T17:35:48.157Z,98.18
2023-02-13T17:38:15.069Z,96.92
2023-02-13T17:40:42.883Z,94.27
2023-02-13T17:43:11.596Z,97.27
2023-02-13T17:45:38.791Z,99.46
2023-02-13T17:48:05.600Z,97.44
2023-02-13T17:50:33.030Z,96.75
2023-02-13T17:53:03.626Z,100.00
2023-02-13T17:55:31.818Z,100.00
2023-02-13T17:58:00.508Z,100.00
2023-02-13T18:00:30.240Z,100.00
2023-02-13T18:02:56.924Z,100.00
2023-02-13T18:05:23.734Z,100.00
2023-02-13T18:07:50.584Z,100.00
2023-02-13T18:10:25.293Z,100.00
2023-02-13T18:12:53.030Z,100.00
2023-02-13T18:15:19.981Z,100.00
2023-02-13T18:17:47.034Z,100.00
2023-02-13T18:20:20.584Z,100.00
2023-02-13T18:22:50.462Z,100.00
2023-02-13T18:25:19.589Z,100.00
2023-02-13T18:27:46.487Z,100.00
2023-02-13T18:30:16.493Z,100.00
2023-02-13T18:32:43.163Z,100.00
2023-02-13T18:35:10.151Z,100.00
2023-02-13T18:37:39.149Z,100.00
2023-02-13T18:40:07.915Z,100.00
2023-02-13T18:42:35.977Z,100.00
2023-02-13T18:45:03.327Z,100.00
2023-02-13T18:47:29.976Z,100.00
2023-02-13T18:49:56.708Z,100.00
2023-02-13T18:52:23.384Z,100.00
2023-02-13T18:54:50.219Z,100.00
2023-02-13T18:57:16.847Z,100.00
2023-02-13T18:59:43.513Z,100.00
2023-02-13T19:02:10.275Z,100.00
2023-02-13T19:04:38.302Z,100.00
2023-02-13T19:07:04.978Z,100.00
2023-02-13T19:09:31.651Z,100.00
2023-02-13T19:11:58.330Z,100.00
2023-02-13T19:14:26.729Z,100.00
2023-02-13T19:16:53.575Z,100.00
2023-02-13T19:19:20.209Z,100.00
2023-02-13T19:21:46.801Z,100.00
2023-02-13T19:24:15.524Z,100.00
2023-02-13T19:26:42.223Z,100.00
2023-02-13T19:29:08.936Z,100.00
2023-02-13T19:31:35.713Z,100.00
2023-02-13T19:34:02.493Z,100.00
2023-02-13T19:36:30.249Z,100.00
2023-02-13T19:38:59.846Z,100.00
2023-02-13T19:41:27.078Z,100.00
2023-02-13T19:43:53.804Z,100.00
2023-02-13T19:46:30.977Z,100.00
2023-02-13T19:48:57.804Z,100.00
2023-02-13T19:51:29.829Z,100.00
2023-02-13T19:53:58.962Z,100.00
2023-02-13T19:56:27.255Z,100.00
2023-02-13T19:58:54.642Z,100.00
2023-02-13T20:01:23.621Z,100.00
2023-02-13T20:03:50.673Z,100.00
2023-02-13T20:06:24.096Z,100.00
2023-02-13T20:08:52.467Z,100.00
2023-02-13T20:11:20.688Z,100.00
2023-02-13T20:13:47.790Z,100.00
2023-02-13T20:16:16.574Z,100.00
2023-02-13T20:18:43.557Z,100.00
2023-02-13T20:21:12.562Z,100.00
2023-02-13T20:23:39.314Z,100.00
2023-02-13T20:26:13.989Z,100.00
2023-02-13T20:28:42.260Z,100.00
2023-02-13T20:31:10.996Z,100.00
2023-02-13T20:33:41.079Z,100.00
2023-02-13T20:36:12.599Z,100.00
2023-02-13T20:38:39.295Z,100.00
2023-02-13T20:41:13.593Z,100.00
2023-02-13T20:43:41.342Z,100.00
2023-02-13T20:46:09.712Z,100.00
2023-02-13T20:48:37.555Z,100.00
2023-02-13T20:51:06.696Z,100.00
2023-02-13T20:53:33.720Z,100.00
2023-02-13T20:56:12.197Z,100.00
2023-02-13T20:58:39.999Z,100.00
2023-02-13T21:01:19.333Z,100.00
2023-02-13T21:03:53.745Z,100.00
2023-02-13T21:06:23.524Z,100.00
2023-02-13T21:08:50.639Z,100.00
2023-02-13T21:11:17.872Z,100.00
2023-02-13T21:13:44.798Z,100.00
2023-02-13T21:16:13.593Z,100.00
2023-02-13T21:18:40.884Z,100.00
2023-02-13T21:21:08.596Z,100.00
2023-02-13T21:23:35.283Z,100.00
2023-02-13T21:26:08.841Z,100.00
2023-02-13T21:28:35.939Z,100.00
2023-02-13T21:31:10.412Z,100.00
2023-02-13T21:33:37.786Z,100.00
2023-02-13T21:36:07.440Z,100.00
2023-02-13T21:38:35.570Z,100.00
2023-02-13T21:41:10.845Z,100.00
2023-02-13T21:43:40.439Z,100.00
2023-02-13T21:46:12.064Z,100.00
2023-02-13T21:48:40.054Z,100.00
2023-02-13T21:51:17.845Z,100.00
2023-02-13T21:53:45.343Z,100.00
2023-02-13T21:56:14.483Z,100.00
2023-02-13T21:58:42.381Z,100.00
2023-02-13T22:01:23.873Z,100.00
2023-02-13T22:03:52.611Z,100.00
2023-02-13T22:06:20.969Z,100.00
2023-02-13T22:08:47.779Z,100.00
2023-02-13T22:11:19.839Z,100.00
2023-02-13T22:13:46.466Z,100.00
2023-02-13T22:16:15.074Z,100.00
2023-02-13T22:18:43.414Z,100.00
2023-02-13T22:21:13.596Z,100.00
2023-02-13T22:23:41.313Z,100.00
2023-02-13T22:26:14.339Z,100.00
2023-02-13T22:28:43.368Z,100.00
2023-02-13T22:31:11.115Z,100.00
2023-02-13T22:33:37.830Z,100.00
2023-02-13T22:36:08.044Z,100.00
2023-02-13T22:38:39.038Z,100.00
2023-02-13T22:41:13.645Z,100.00
2023-02-13T22:43:41.260Z,100.00
2023-02-13T22:46:12.017Z,100.00
2023-02-13T22:48:39.884Z,100.00
2023-02-13T22:51:09.321Z,100.00
2023-02-13T22:53:36.830Z,100.00
2023-02-13T22:56:05.478Z,100.00
2023-02-13T22:58:32.085Z,100.00
2023-02-13T23:00:59.441Z,100.00
2023-02-13T23:03:26.490Z,100.00
2023-02-13T23:05:53.392Z,100.00
2023-02-13T23:08:20.093Z,100.00
2023-02-13T23:11:06.831Z,100.00
2023-02-13T23:13:33.456Z,100.00
2023-02-13T23:16:00.175Z,100.00
2023-02-13T23:18:26.825Z,100.00
2023-02-13T23:20:53.445Z,100.00
2023-02-13T23:23:22.346Z,100.00
2023-02-13T23:25:51.823Z,100.00
2023-02-13T23:28:18.583Z,100.00
2023-02-13T23:30:48.437Z,100.00
2023-02-13T23:33:15.144Z,100.00
2023-02-13T23:35:41.774Z,100.00
2023-02-13T23:38:08.513Z,100.00
2023-02-13T23:40:35.117Z,100.00
2023-02-13T23:43:01.769Z,100.00
2023-02-13T23:45:31.213Z,100.00
2023-02-13T23:47:57.793Z,100.00
2023-02-13T23:50:24.435Z,100.00
2023-02-13T23:52:51.184Z,100.00
2023-02-13T23:55:17.896Z,100.00
2023-02-13T23:57:44.512Z,100.00
